sensor_id;sensor_type;location;lat;lon;timestamp;temperature;humidity
3626;DHT22;1827;50.534;8.316;2023-01-30T00:01:03;-0.30;1.00
3626;DHT22;1827;50.534;8.316;2023-01-30T00:03:30;-0.20;1.00
3626;DHT22;1827;50.534;8.316;2023-01-30T00:05:56;-0.30;1.00
3626;DHT22;1827;50.534;8.316;2023-01-30T00:08:21;-0.30;1.00
3626;DHT22;1827;50.534;8.316;2023-01-30T00:10:47;-0.30;1.00
3626;DHT22;1827;50.534;8.316;2023-01-30T00:13:15;-0.30;1.00
3626;DHT22;1827;50.534;8.316;2023-01-30T00:15:42;-0.20;1.00
3626;DHT22;1827;50.534;8.316;2023-01-30T00:18:08;-0.20;1.00
3626;DHT22;1827;50.534;8.316;2023-01-30T00:20:35;-0.20;1.00
3626;DHT22;1827;50.534;8.316;2023-01-30T00:23:03;-0.20;1.00
3626;DHT22;1827;50.534;8.316;2023-01-30T00:25:31;-0.10;1.00
3626;DHT22;1827;50.534;8.316;2023-01-30T00:28:01;-0.10;1.00
3626;DHT22;1827;50.534;8.316;2023-01-30T00:30:28;-0.10;1.00
3626;DHT22;1827;50.534;8.316;2023-01-30T00:32:57;-0.10;1.00
3626;DHT22;1827;50.534;8.316;2023-01-30T00:35:24;-0.10;1.00
3626;DHT22;1827;50.534;8.316;2023-01-30T00:37:57;-0.10;1.00
3626;DHT22;1827;50.534;8.316;2023-01-30T00:40:25;-0.10;1.00
3626;DHT22;1827;50.534;8.316;2023-01-30T00:42:55;-0.10;1.00
3626;DHT22;1827;50.534;8.316;2023-01-30T00:46:02;0.00;1.00
3626;DHT22;1827;50.534;8.316;2023-01-30T00:48:48;0.00;1.00
3626;DHT22;1827;50.534;8.316;2023-01-30T00:51:14;0.00;1.00
3626;DHT22;1827;50.534;8.316;2023-01-30T00:53:40;0.00;1.00
3626;DHT22;1827;50.534;8.316;2023-01-30T00:56:07;0.00;1.00
3626;DHT22;1827;50.534;8.316;2023-01-30T00:58:34;0.00;1.00
3626;DHT22;1827;50.534;8.316;2023-01-30T01:01:01;0.00;1.00
3626;DHT22;1827;50.534;8.316;2023-01-30T01:03:27;0.00;1.00
3626;DHT22;1827;50.534;8.316;2023-01-30T01:05:53;0.00;1.00
3626;DHT22;1827;50.534;8.316;2023-01-30T01:08:19;0.20;1.00
3626;DHT22;1827;50.534;8.316;2023-01-30T01:10:47;0.10;1.00
3626;DHT22;1827;50.534;8.316;2023-01-30T01:13:12;0.10;1.00
3626;DHT22;1827;50.534;8.316;2023-01-30T01:15:40;0.20;1.00
3626;DHT22;1827;50.534;8.316;2023-01-30T01:18:05;0.20;1.00
3626;DHT22;1827;50.534;8.316;2023-01-30T01:20:31;0.20;1.00
3626;DHT22;1827;50.534;8.316;2023-01-30T01:22:57;0.10;1.00
3626;DHT22;1827;50.534;8.316;2023-01-30T01:25:23;0.10;1.00
3626;DHT22;1827;50.534;8.316;2023-01-30T01:27:49;0.10;1.00
3626;DHT22;1827;50.534;8.316;2023-01-30T01:30:16;0.20;1.00
3626;DHT22;1827;50.534;8.316;2023-01-30T01:32:43;0.20;1.00
3626;DHT22;1827;50.534;8.316;2023-01-30T01:35:09;0.20;1.00
3626;DHT22;1827;50.534;8.316;2023-01-30T01:37:36;0.20;1.00
3626;DHT22;1827;50.534;8.316;2023-01-30T01:40:03;0.20;1.00
3626;DHT22;1827;50.534;8.316;2023-01-30T01:42:48;0.30;1.00
3626;DHT22;1827;50.534;8.316;2023-01-30T01:45:19;0.20;1.00
3626;DHT22;1827;50.534;8.316;2023-01-30T01:47:59;0.30;1.00
3626;DHT22;1827;50.534;8.316;2023-01-30T01:50:53;0.30;1.00
3626;DHT22;1827;50.534;8.316;2023-01-30T01:53:25;0.30;1.00
3626;DHT22;1827;50.534;8.316;2023-01-30T01:55:55;0.40;1.00
3626;DHT22;1827;50.534;8.316;2023-01-30T01:58:36;0.40;1.00
3626;DHT22;1827;50.534;8.316;2023-01-30T02:01:04;0.40;1.00
3626;DHT22;1827;50.534;8.316;2023-01-30T02:03:34;0.40;1.00
3626;DHT22;1827;50.534;8.316;2023-01-30T02:06:02;0.40;1.00
3626;DHT22;1827;50.534;8.316;2023-01-30T02:08:37;0.50;1.00
3626;DHT22;1827;50.534;8.316;2023-01-30T02:11:16;0.50;1.00
3626;DHT22;1827;50.534;8.316;2023-01-30T02:13:47;0.50;1.00
3626;DHT22;1827;50.534;8.316;2023-01-30T02:16:15;0.50;1.00
3626;DHT22;1827;50.534;8.316;2023-01-30T02:18:44;0.60;1.00
3626;DHT22;1827;50.534;8.316;2023-01-30T02:27:26;0.60;1.00
3626;DHT22;1827;50.534;8.316;2023-01-30T02:39:11;0.80;1.00
3626;DHT22;1827;50.534;8.316;2023-01-30T02:42:13;0.80;1.00
3626;DHT22;1827;50.534;8.316;2023-01-30T02:47:42;0.70;1.00
3626;DHT22;1827;50.534;8.316;2023-01-30T02:50:17;0.70;1.00
3626;DHT22;1827;50.534;8.316;2023-01-30T02:52:44;0.70;1.00
3626;DHT22;1827;50.534;8.316;2023-01-30T02:55:19;0.70;1.00
3626;DHT22;1827;50.534;8.316;2023-01-30T02:57:45;0.80;1.00
3626;DHT22;1827;50.534;8.316;2023-01-30T03:00:12;0.80;1.00
3626;DHT22;1827;50.534;8.316;2023-01-30T03:02:48;0.80;1.00
3626;DHT22;1827;50.534;8.316;2023-01-30T03:05:38;0.90;1.00
3626;DHT22;1827;50.534;8.316;2023-01-30T03:10:48;1.00;1.00
3626;DHT22;1827;50.534;8.316;2023-01-30T03:16:03;1.00;1.00
3626;DHT22;1827;50.534;8.316;2023-01-30T03:18:31;1.00;1.00
3626;DHT22;1827;50.534;8.316;2023-01-30T03:21:03;1.00;1.00
3626;DHT22;1827;50.534;8.316;2023-01-30T03:23:30;1.00;1.00
3626;DHT22;1827;50.534;8.316;2023-01-30T03:25:56;1.00;1.00
3626;DHT22;1827;50.534;8.316;2023-01-30T03:28:22;1.00;1.00
3626;DHT22;1827;50.534;8.316;2023-01-30T03:30:48;1.00;1.00
3626;DHT22;1827;50.534;8.316;2023-01-30T03:33:14;1.00;1.00
3626;DHT22;1827;50.534;8.316;2023-01-30T03:35:45;1.00;1.00
3626;DHT22;1827;50.534;8.316;2023-01-30T03:38:12;1.00;1.00
3626;DHT22;1827;50.534;8.316;2023-01-30T03:40:39;1.00;1.00
3626;DHT22;1827;50.534;8.316;2023-01-30T03:43:04;0.90;1.00
3626;DHT22;1827;50.534;8.316;2023-01-30T03:45:31;0.90;1.00
3626;DHT22;1827;50.534;8.316;2023-01-30T03:47:57;1.00;1.00
3626;DHT22;1827;50.534;8.316;2023-01-30T03:50:23;0.90;1.00
3626;DHT22;1827;50.534;8.316;2023-01-30T03:52:48;1.00;1.00
3626;DHT22;1827;50.534;8.316;2023-01-30T03:55:18;0.90;1.00
3626;DHT22;1827;50.534;8.316;2023-01-30T03:57:43;0.90;1.00
3626;DHT22;1827;50.534;8.316;2023-01-30T04:00:10;0.90;1.00
3626;DHT22;1827;50.534;8.316;2023-01-30T04:02:42;0.90;1.00
3626;DHT22;1827;50.534;8.316;2023-01-30T04:05:08;1.00;12.80
3626;DHT22;1827;50.534;8.316;2023-01-30T04:07:35;1.00;28.60
3626;DHT22;1827;50.534;8.316;2023-01-30T04:10:01;1.00;40.10
3626;DHT22;1827;50.534;8.316;2023-01-30T04:12:27;1.00;71.20
3626;DHT22;1827;50.534;8.316;2023-01-30T04:14:56;1.00;92.20
3626;DHT22;1827;50.534;8.316;2023-01-30T04:17:44;1.00;99.90
3626;DHT22;1827;50.534;8.316;2023-01-30T04:20:29;1.00;99.90
3626;DHT22;1827;50.534;8.316;2023-01-30T04:22:55;1.00;99.90
3626;DHT22;1827;50.534;8.316;2023-01-30T04:25:23;1.10;99.90
3626;DHT22;1827;50.534;8.316;2023-01-30T04:27:49;1.10;99.90
3626;DHT22;1827;50.534;8.316;2023-01-30T04:30:20;1.10;99.90
3626;DHT22;1827;50.534;8.316;2023-01-30T04:32:49;1.10;99.90
3626;DHT22;1827;50.534;8.316;2023-01-30T04:35:14;1.10;99.90
3626;DHT22;1827;50.534;8.316;2023-01-30T04:37:40;1.10;99.90
3626;DHT22;1827;50.534;8.316;2023-01-30T04:40:10;1.10;99.90
3626;DHT22;1827;50.534;8.316;2023-01-30T04:42:36;1.10;99.90
3626;DHT22;1827;50.534;8.316;2023-01-30T04:45:20;1.10;99.90
3626;DHT22;1827;50.534;8.316;2023-01-30T04:47:48;1.10;99.90
3626;DHT22;1827;50.534;8.316;2023-01-30T04:50:14;1.10;99.90
3626;DHT22;1827;50.534;8.316;2023-01-30T04:52:40;1.10;99.90
3626;DHT22;1827;50.534;8.316;2023-01-30T04:55:07;1.10;99.90
3626;DHT22;1827;50.534;8.316;2023-01-30T04:57:33;1.10;99.90
3626;DHT22;1827;50.534;8.316;2023-01-30T04:59:59;1.10;99.90
3626;DHT22;1827;50.534;8.316;2023-01-30T05:02:24;1.20;1.00
3626;DHT22;1827;50.534;8.316;2023-01-30T05:04:50;1.20;1.00
3626;DHT22;1827;50.534;8.316;2023-01-30T05:07:17;1.20;1.00
3626;DHT22;1827;50.534;8.316;2023-01-30T05:09:43;1.20;1.00
3626;DHT22;1827;50.534;8.316;2023-01-30T05:12:08;1.20;1.00
3626;DHT22;1827;50.534;8.316;2023-01-30T05:14:34;1.20;1.00
3626;DHT22;1827;50.534;8.316;2023-01-30T05:17:00;1.20;1.00
3626;DHT22;1827;50.534;8.316;2023-01-30T05:19:25;1.30;1.00
3626;DHT22;1827;50.534;8.316;2023-01-30T05:21:51;1.30;1.00
3626;DHT22;1827;50.534;8.316;2023-01-30T05:24:17;1.30;1.00
3626;DHT22;1827;50.534;8.316;2023-01-30T05:26:42;1.30;1.00
3626;DHT22;1827;50.534;8.316;2023-01-30T05:29:09;1.30;1.00
3626;DHT22;1827;50.534;8.316;2023-01-30T05:31:34;1.30;1.00
3626;DHT22;1827;50.534;8.316;2023-01-30T05:34:00;1.30;1.00
3626;DHT22;1827;50.534;8.316;2023-01-30T05:36:26;1.30;1.00
3626;DHT22;1827;50.534;8.316;2023-01-30T05:38:51;1.30;1.00
3626;DHT22;1827;50.534;8.316;2023-01-30T05:41:17;1.30;1.00
3626;DHT22;1827;50.534;8.316;2023-01-30T05:43:47;1.40;1.00
3626;DHT22;1827;50.534;8.316;2023-01-30T05:46:13;1.40;1.00
3626;DHT22;1827;50.534;8.316;2023-01-30T05:48:38;1.40;1.00
3626;DHT22;1827;50.534;8.316;2023-01-30T05:51:04;1.40;1.00
3626;DHT22;1827;50.534;8.316;2023-01-30T05:53:31;1.40;1.00
3626;DHT22;1827;50.534;8.316;2023-01-30T05:56:01;1.40;1.00
3626;DHT22;1827;50.534;8.316;2023-01-30T05:58:28;1.40;1.00
3626;DHT22;1827;50.534;8.316;2023-01-30T06:00:58;1.40;1.00
3626;DHT22;1827;50.534;8.316;2023-01-30T06:03:24;1.40;1.00
3626;DHT22;1827;50.534;8.316;2023-01-30T06:05:49;1.40;1.00
3626;DHT22;1827;50.534;8.316;2023-01-30T06:08:15;1.50;1.00
3626;DHT22;1827;50.534;8.316;2023-01-30T06:10:42;1.50;1.00
3626;DHT22;1827;50.534;8.316;2023-01-30T06:13:07;1.50;1.00
3626;DHT22;1827;50.534;8.316;2023-01-30T06:15:35;1.50;1.00
3626;DHT22;1827;50.534;8.316;2023-01-30T06:18:01;1.50;1.00
3626;DHT22;1827;50.534;8.316;2023-01-30T06:20:27;1.50;1.00
3626;DHT22;1827;50.534;8.316;2023-01-30T06:22:53;1.50;1.00
3626;DHT22;1827;50.534;8.316;2023-01-30T06:25:18;1.50;1.00
3626;DHT22;1827;50.534;8.316;2023-01-30T06:27:47;1.60;1.00
3626;DHT22;1827;50.534;8.316;2023-01-30T06:30:13;1.60;1.00
3626;DHT22;1827;50.534;8.316;2023-01-30T06:32:39;1.60;1.00
3626;DHT22;1827;50.534;8.316;2023-01-30T06:35:06;1.60;1.00
3626;DHT22;1827;50.534;8.316;2023-01-30T06:37:32;1.60;1.00
3626;DHT22;1827;50.534;8.316;2023-01-30T06:39:57;1.60;1.00
3626;DHT22;1827;50.534;8.316;2023-01-30T06:42:23;1.60;1.00
3626;DHT22;1827;50.534;8.316;2023-01-30T06:44:49;1.60;1.00
3626;DHT22;1827;50.534;8.316;2023-01-30T06:47:17;1.60;1.00
3626;DHT22;1827;50.534;8.316;2023-01-30T06:49:44;1.60;1.00
3626;DHT22;1827;50.534;8.316;2023-01-30T06:52:10;1.60;1.00
3626;DHT22;1827;50.534;8.316;2023-01-30T06:54:36;1.60;1.00
3626;DHT22;1827;50.534;8.316;2023-01-30T06:57:03;1.60;1.00
3626;DHT22;1827;50.534;8.316;2023-01-30T06:59:29;1.60;1.00
3626;DHT22;1827;50.534;8.316;2023-01-30T07:01:58;1.60;1.00
3626;DHT22;1827;50.534;8.316;2023-01-30T07:04:26;1.60;1.00
3626;DHT22;1827;50.534;8.316;2023-01-30T07:06:53;1.60;1.00
3626;DHT22;1827;50.534;8.316;2023-01-30T07:09:20;1.60;1.00
3626;DHT22;1827;50.534;8.316;2023-01-30T07:11:47;1.60;1.00
3626;DHT22;1827;50.534;8.316;2023-01-30T07:14:17;1.60;1.00
3626;DHT22;1827;50.534;8.316;2023-01-30T07:16:44;1.50;1.00
3626;DHT22;1827;50.534;8.316;2023-01-30T07:19:12;1.60;1.00
3626;DHT22;1827;50.534;8.316;2023-01-30T07:21:38;1.50;1.00
3626;DHT22;1827;50.534;8.316;2023-01-30T07:24:05;1.50;1.00
3626;DHT22;1827;50.534;8.316;2023-01-30T07:26:34;1.50;1.00
3626;DHT22;1827;50.534;8.316;2023-01-30T07:29:02;1.50;1.00
3626;DHT22;1827;50.534;8.316;2023-01-30T07:31:29;1.60;1.00
3626;DHT22;1827;50.534;8.316;2023-01-30T07:33:57;1.60;4.80
3626;DHT22;1827;50.534;8.316;2023-01-30T07:36:25;1.60;18.30
3626;DHT22;1827;50.534;8.316;2023-01-30T07:38:52;1.50;27.60
3626;DHT22;1827;50.534;8.316;2023-01-30T07:41:20;1.60;53.80
3626;DHT22;1827;50.534;8.316;2023-01-30T07:43:49;1.50;62.50
3626;DHT22;1827;50.534;8.316;2023-01-30T07:46:17;1.50;92.50
3626;DHT22;1827;50.534;8.316;2023-01-30T07:48:46;1.50;99.90
3626;DHT22;1827;50.534;8.316;2023-01-30T07:51:15;1.50;99.90
3626;DHT22;1827;50.534;8.316;2023-01-30T07:53:41;1.60;99.90
3626;DHT22;1827;50.534;8.316;2023-01-30T07:56:11;1.60;99.90
3626;DHT22;1827;50.534;8.316;2023-01-30T07:58:45;1.50;99.90
3626;DHT22;1827;50.534;8.316;2023-01-30T08:01:12;1.60;99.90
3626;DHT22;1827;50.534;8.316;2023-01-30T08:03:42;1.60;99.90
3626;DHT22;1827;50.534;8.316;2023-01-30T08:06:12;1.60;99.90
3626;DHT22;1827;50.534;8.316;2023-01-30T08:08:41;1.60;99.90
3626;DHT22;1827;50.534;8.316;2023-01-30T08:11:07;1.60;99.90
3626;DHT22;1827;50.534;8.316;2023-01-30T08:13:34;1.60;99.90
3626;DHT22;1827;50.534;8.316;2023-01-30T08:16:06;1.70;99.90
3626;DHT22;1827;50.534;8.316;2023-01-30T08:18:33;1.70;99.90
3626;DHT22;1827;50.534;8.316;2023-01-30T08:21:00;1.70;1.00
3626;DHT22;1827;50.534;8.316;2023-01-30T08:23:27;1.70;1.00
3626;DHT22;1827;50.534;8.316;2023-01-30T08:26:01;1.80;1.00
3626;DHT22;1827;50.534;8.316;2023-01-30T08:28:31;1.80;1.00
3626;DHT22;1827;50.534;8.316;2023-01-30T08:30:58;1.90;1.00
3626;DHT22;1827;50.534;8.316;2023-01-30T08:33:27;1.90;1.00
3626;DHT22;1827;50.534;8.316;2023-01-30T08:36:02;2.00;1.00
3626;DHT22;1827;50.534;8.316;2023-01-30T08:38:30;2.00;1.00
3626;DHT22;1827;50.534;8.316;2023-01-30T08:40:57;2.00;1.00
3626;DHT22;1827;50.534;8.316;2023-01-30T08:43:26;2.10;1.00
3626;DHT22;1827;50.534;8.316;2023-01-30T08:45:54;2.20;1.00
3626;DHT22;1827;50.534;8.316;2023-01-30T08:48:22;2.20;1.00
3626;DHT22;1827;50.534;8.316;2023-01-30T08:50:52;2.20;1.00
3626;DHT22;1827;50.534;8.316;2023-01-30T08:53:19;2.20;1.00
3626;DHT22;1827;50.534;8.316;2023-01-30T08:55:52;2.30;1.00
3626;DHT22;1827;50.534;8.316;2023-01-30T08:58:21;2.20;1.00
3626;DHT22;1827;50.534;8.316;2023-01-30T09:00:48;2.30;1.00
3626;DHT22;1827;50.534;8.316;2023-01-30T09:03:19;2.30;1.00
3626;DHT22;1827;50.534;8.316;2023-01-30T09:05:46;2.30;1.00
3626;DHT22;1827;50.534;8.316;2023-01-30T09:08:12;2.30;1.00
3626;DHT22;1827;50.534;8.316;2023-01-30T09:10:42;2.30;99.90
3626;DHT22;1827;50.534;8.316;2023-01-30T09:13:09;2.30;99.90
3626;DHT22;1827;50.534;8.316;2023-01-30T09:15:40;2.30;99.90
3626;DHT22;1827;50.534;8.316;2023-01-30T09:18:07;2.30;99.90
3626;DHT22;1827;50.534;8.316;2023-01-30T09:20:36;2.30;99.90
3626;DHT22;1827;50.534;8.316;2023-01-30T09:23:04;2.40;99.90
3626;DHT22;1827;50.534;8.316;2023-01-30T09:25:31;2.40;99.90
3626;DHT22;1827;50.534;8.316;2023-01-30T09:28:00;2.40;99.90
3626;DHT22;1827;50.534;8.316;2023-01-30T09:30:27;2.40;99.90
3626;DHT22;1827;50.534;8.316;2023-01-30T09:32:53;2.40;99.90
3626;DHT22;1827;50.534;8.316;2023-01-30T09:35:22;2.50;99.90
3626;DHT22;1827;50.534;8.316;2023-01-30T09:37:51;2.40;99.90
3626;DHT22;1827;50.534;8.316;2023-01-30T09:40:26;2.40;99.90
3626;DHT22;1827;50.534;8.316;2023-01-30T09:43:01;2.40;99.90
3626;DHT22;1827;50.534;8.316;2023-01-30T09:48:38;2.50;57.80
3626;DHT22;1827;50.534;8.316;2023-01-30T09:51:34;2.60;29.60
3626;DHT22;1827;50.534;8.316;2023-01-30T09:56:44;2.80;1.00
3626;DHT22;1827;50.534;8.316;2023-01-30T09:59:18;2.80;1.00
3626;DHT22;1827;50.534;8.316;2023-01-30T10:01:57;2.90;1.00
3626;DHT22;1827;50.534;8.316;2023-01-30T10:04:33;3.00;1.00
3626;DHT22;1827;50.534;8.316;2023-01-30T10:07:12;3.00;1.00
3626;DHT22;1827;50.534;8.316;2023-01-30T10:23:21;3.70;1.00
3626;DHT22;1827;50.534;8.316;2023-01-30T10:25:56;4.10;1.00
3626;DHT22;1827;50.534;8.316;2023-01-30T10:28:40;4.30;1.00
3626;DHT22;1827;50.534;8.316;2023-01-30T10:31:13;4.20;1.00
3626;DHT22;1827;50.534;8.316;2023-01-30T10:33:57;4.20;1.00
3626;DHT22;1827;50.534;8.316;2023-01-30T10:42:17;4.00;1.00
3626;DHT22;1827;50.534;8.316;2023-01-30T10:44:48;4.10;1.00
3626;DHT22;1827;50.534;8.316;2023-01-30T10:49:51;4.60;99.90
3626;DHT22;1827;50.534;8.316;2023-01-30T10:58:01;4.60;99.90
3626;DHT22;1827;50.534;8.316;2023-01-30T11:00:45;4.40;99.90
3626;DHT22;1827;50.534;8.316;2023-01-30T11:03:24;4.30;99.90
3626;DHT22;1827;50.534;8.316;2023-01-30T11:06:05;4.40;99.90
3626;DHT22;1827;50.534;8.316;2023-01-30T11:08:33;4.50;99.90
3626;DHT22;1827;50.534;8.316;2023-01-30T11:11:00;4.50;99.90
3626;DHT22;1827;50.534;8.316;2023-01-30T11:13:45;4.60;99.90
3626;DHT22;1827;50.534;8.316;2023-01-30T11:16:16;4.60;99.90
3626;DHT22;1827;50.534;8.316;2023-01-30T11:18:48;4.70;99.90
3626;DHT22;1827;50.534;8.316;2023-01-30T11:21:24;4.80;99.90
3626;DHT22;1827;50.534;8.316;2023-01-30T11:23:53;4.80;99.90
3626;DHT22;1827;50.534;8.316;2023-01-30T11:26:32;4.90;99.90
3626;DHT22;1827;50.534;8.316;2023-01-30T11:32:27;5.00;99.90
3626;DHT22;1827;50.534;8.316;2023-01-30T11:35:28;5.10;95.60
3626;DHT22;1827;50.534;8.316;2023-01-30T11:38:31;5.30;68.90
3626;DHT22;1827;50.534;8.316;2023-01-30T11:41:21;5.20;39.30
3626;DHT22;1827;50.534;8.316;2023-01-30T11:43:50;5.30;29.50
3626;DHT22;1827;50.534;8.316;2023-01-30T11:46:19;5.20;1.00
3626;DHT22;1827;50.534;8.316;2023-01-30T11:52:31;5.40;1.00
3626;DHT22;1827;50.534;8.316;2023-01-30T11:58:08;5.40;1.00
3626;DHT22;1827;50.534;8.316;2023-01-30T12:00:45;5.40;1.00
3626;DHT22;1827;50.534;8.316;2023-01-30T12:03:25;5.20;1.00
3626;DHT22;1827;50.534;8.316;2023-01-30T12:06:03;5.10;1.00
3626;DHT22;1827;50.534;8.316;2023-01-30T12:08:43;5.10;1.00
3626;DHT22;1827;50.534;8.316;2023-01-30T12:11:43;5.10;1.00
3626;DHT22;1827;50.534;8.316;2023-01-30T12:19:36;5.30;1.00
3626;DHT22;1827;50.534;8.316;2023-01-30T12:22:30;5.40;1.00
3626;DHT22;1827;50.534;8.316;2023-01-30T12:25:02;6.00;1.00
3626;DHT22;1827;50.534;8.316;2023-01-30T12:27:51;6.10;1.00
3626;DHT22;1827;50.534;8.316;2023-01-30T12:30:25;6.00;1.00
3626;DHT22;1827;50.534;8.316;2023-01-30T12:32:58;5.90;1.00
3626;DHT22;1827;50.534;8.316;2023-01-30T12:36:12;5.90;1.00
3626;DHT22;1827;50.534;8.316;2023-01-30T12:44:12;5.90;1.00
3626;DHT22;1827;50.534;8.316;2023-01-30T12:49:59;6.00;1.00
3626;DHT22;1827;50.534;8.316;2023-01-30T12:55:20;6.10;1.00
3626;DHT22;1827;50.534;8.316;2023-01-30T12:57:53;6.10;1.00
3626;DHT22;1827;50.534;8.316;2023-01-30T13:09:18;6.10;1.00
3626;DHT22;1827;50.534;8.316;2023-01-30T13:26:12;6.00;1.00
3626;DHT22;1827;50.534;8.316;2023-01-30T13:28:48;5.80;1.00
3626;DHT22;1827;50.534;8.316;2023-01-30T13:31:19;5.80;1.00
3626;DHT22;1827;50.534;8.316;2023-01-30T13:34:03;5.80;1.00
3626;DHT22;1827;50.534;8.316;2023-01-30T13:36:44;5.50;1.00
3626;DHT22;1827;50.534;8.316;2023-01-30T13:42:01;5.30;1.00
3626;DHT22;1827;50.534;8.316;2023-01-30T13:44:31;5.20;1.00
3626;DHT22;1827;50.534;8.316;2023-01-30T13:47:14;5.20;1.00
3626;DHT22;1827;50.534;8.316;2023-01-30T13:55:50;6.00;1.00
3626;DHT22;1827;50.534;8.316;2023-01-30T14:00:55;6.40;1.00
3626;DHT22;1827;50.534;8.316;2023-01-30T14:03:29;6.40;1.00
3626;DHT22;1827;50.534;8.316;2023-01-30T14:06:00;6.40;1.00
3626;DHT22;1827;50.534;8.316;2023-01-30T14:10:53;6.10;1.00
3626;DHT22;1827;50.534;8.316;2023-01-30T14:13:21;5.90;1.00
3626;DHT22;1827;50.534;8.316;2023-01-30T14:15:59;5.70;1.00
3626;DHT22;1827;50.534;8.316;2023-01-30T14:18:33;5.70;1.00
3626;DHT22;1827;50.534;8.316;2023-01-30T14:21:19;5.70;1.00
3626;DHT22;1827;50.534;8.316;2023-01-30T14:34:41;5.70;1.00
3626;DHT22;1827;50.534;8.316;2023-01-30T14:37:27;5.60;1.00
3626;DHT22;1827;50.534;8.316;2023-01-30T14:39:55;5.60;1.00
3626;DHT22;1827;50.534;8.316;2023-01-30T14:42:26;5.50;1.00
3626;DHT22;1827;50.534;8.316;2023-01-30T14:45:17;5.40;1.00
3626;DHT22;1827;50.534;8.316;2023-01-30T14:47:43;5.30;1.00
3626;DHT22;1827;50.534;8.316;2023-01-30T14:50:20;5.30;1.00
3626;DHT22;1827;50.534;8.316;2023-01-30T14:52:48;5.30;1.00
3626;DHT22;1827;50.534;8.316;2023-01-30T14:55:21;5.30;1.00
3626;DHT22;1827;50.534;8.316;2023-01-30T14:58:00;5.20;1.00
3626;DHT22;1827;50.534;8.316;2023-01-30T15:00:30;5.20;1.00
3626;DHT22;1827;50.534;8.316;2023-01-30T15:02:59;5.10;1.00
3626;DHT22;1827;50.534;8.316;2023-01-30T15:05:44;5.00;1.00
3626;DHT22;1827;50.534;8.316;2023-01-30T15:08:18;4.90;1.00
3626;DHT22;1827;50.534;8.316;2023-01-30T15:32:16;5.00;1.00
3626;DHT22;1827;50.534;8.316;2023-01-30T15:35:01;5.00;1.00
3626;DHT22;1827;50.534;8.316;2023-01-30T15:37:33;4.90;1.00
3626;DHT22;1827;50.534;8.316;2023-01-30T15:51:04;4.80;1.00
3626;DHT22;1827;50.534;8.316;2023-01-30T15:53:39;4.80;1.00
3626;DHT22;1827;50.534;8.316;2023-01-30T15:56:09;4.80;1.00
3626;DHT22;1827;50.534;8.316;2023-01-30T15:58:41;4.80;1.00
3626;DHT22;1827;50.534;8.316;2023-01-30T16:01:11;4.80;1.00
3626;DHT22;1827;50.534;8.316;2023-01-30T16:03:42;4.80;1.00
3626;DHT22;1827;50.534;8.316;2023-01-30T16:08:58;4.60;1.00
3626;DHT22;1827;50.534;8.316;2023-01-30T16:11:51;4.70;1.00
3626;DHT22;1827;50.534;8.316;2023-01-30T16:14:19;4.60;1.00
3626;DHT22;1827;50.534;8.316;2023-01-30T16:16:56;4.60;1.00
3626;DHT22;1827;50.534;8.316;2023-01-30T16:19:30;4.50;1.00
3626;DHT22;1827;50.534;8.316;2023-01-30T16:22:16;4.50;1.00
3626;DHT22;1827;50.534;8.316;2023-01-30T16:24:51;4.50;1.00
3626;DHT22;1827;50.534;8.316;2023-01-30T16:29:51;4.40;1.00
3626;DHT22;1827;50.534;8.316;2023-01-30T16:32:28;4.40;1.00
3626;DHT22;1827;50.534;8.316;2023-01-30T16:35:34;4.40;1.00
3626;DHT22;1827;50.534;8.316;2023-01-30T16:38:02;4.40;1.00
3626;DHT22;1827;50.534;8.316;2023-01-30T16:40:48;4.40;1.00
3626;DHT22;1827;50.534;8.316;2023-01-30T16:43:22;4.40;1.00
3626;DHT22;1827;50.534;8.316;2023-01-30T16:48:26;4.50;1.00
3626;DHT22;1827;50.534;8.316;2023-01-30T16:53:25;4.30;1.00
3626;DHT22;1827;50.534;8.316;2023-01-30T16:56:06;4.20;1.00
3626;DHT22;1827;50.534;8.316;2023-01-30T16:58:35;4.20;1.00
3626;DHT22;1827;50.534;8.316;2023-01-30T17:01:07;4.00;1.00
3626;DHT22;1827;50.534;8.316;2023-01-30T17:03:41;4.10;1.00
3626;DHT22;1827;50.534;8.316;2023-01-30T17:06:29;4.10;1.00
3626;DHT22;1827;50.534;8.316;2023-01-30T17:08:57;4.00;1.00
3626;DHT22;1827;50.534;8.316;2023-01-30T17:11:33;4.00;1.00
3626;DHT22;1827;50.534;8.316;2023-01-30T17:14:15;3.90;1.00
3626;DHT22;1827;50.534;8.316;2023-01-30T17:16:46;3.90;1.00
3626;DHT22;1827;50.534;8.316;2023-01-30T17:19:35;3.90;1.00
3626;DHT22;1827;50.534;8.316;2023-01-30T17:22:07;3.80;1.00
3626;DHT22;1827;50.534;8.316;2023-01-30T17:24:46;3.90;1.00
3626;DHT22;1827;50.534;8.316;2023-01-30T17:27:13;4.00;1.00
3626;DHT22;1827;50.534;8.316;2023-01-30T17:29:41;4.10;1.00
3626;DHT22;1827;50.534;8.316;2023-01-30T17:32:11;4.10;1.00
3626;DHT22;1827;50.534;8.316;2023-01-30T17:34:39;4.20;1.00
3626;DHT22;1827;50.534;8.316;2023-01-30T17:37:17;4.20;1.00
3626;DHT22;1827;50.534;8.316;2023-01-30T17:39:45;4.20;1.00
3626;DHT22;1827;50.534;8.316;2023-01-30T17:42:13;4.20;1.00
3626;DHT22;1827;50.534;8.316;2023-01-30T17:44:40;4.40;1.00
3626;DHT22;1827;50.534;8.316;2023-01-30T17:47:10;4.40;1.00
3626;DHT22;1827;50.534;8.316;2023-01-30T17:49:38;4.40;1.00
3626;DHT22;1827;50.534;8.316;2023-01-30T17:52:07;4.50;1.00
3626;DHT22;1827;50.534;8.316;2023-01-30T17:54:34;4.50;1.00
3626;DHT22;1827;50.534;8.316;2023-01-30T17:57:04;4.60;1.00
3626;DHT22;1827;50.534;8.316;2023-01-30T17:59:41;4.60;1.00
3626;DHT22;1827;50.534;8.316;2023-01-30T18:02:18;4.60;1.00
3626;DHT22;1827;50.534;8.316;2023-01-30T18:04:51;4.60;1.00
3626;DHT22;1827;50.534;8.316;2023-01-30T18:07:17;4.60;1.00
3626;DHT22;1827;50.534;8.316;2023-01-30T18:09:46;4.60;1.00
3626;DHT22;1827;50.534;8.316;2023-01-30T18:12:15;4.60;1.00
3626;DHT22;1827;50.534;8.316;2023-01-30T18:14:43;4.60;1.00
3626;DHT22;1827;50.534;8.316;2023-01-30T18:17:17;4.70;1.00
3626;DHT22;1827;50.534;8.316;2023-01-30T18:19:49;4.70;1.00
3626;DHT22;1827;50.534;8.316;2023-01-30T18:22:23;4.70;1.00
3626;DHT22;1827;50.534;8.316;2023-01-30T18:24:57;4.70;1.00
3626;DHT22;1827;50.534;8.316;2023-01-30T18:27:26;4.60;1.00
3626;DHT22;1827;50.534;8.316;2023-01-30T18:29:52;4.60;1.00
3626;DHT22;1827;50.534;8.316;2023-01-30T18:32:20;4.50;1.00
3626;DHT22;1827;50.534;8.316;2023-01-30T18:34:47;4.60;1.00
3626;DHT22;1827;50.534;8.316;2023-01-30T18:37:15;4.70;1.00
3626;DHT22;1827;50.534;8.316;2023-01-30T18:39:43;4.80;1.00
3626;DHT22;1827;50.534;8.316;2023-01-30T18:42:09;4.70;1.00
3626;DHT22;1827;50.534;8.316;2023-01-30T18:44:36;4.70;1.00
3626;DHT22;1827;50.534;8.316;2023-01-30T18:47:02;4.70;1.00
3626;DHT22;1827;50.534;8.316;2023-01-30T18:49:29;4.60;1.00
3626;DHT22;1827;50.534;8.316;2023-01-30T18:51:55;4.70;1.00
3626;DHT22;1827;50.534;8.316;2023-01-30T18:54:21;4.70;1.00
3626;DHT22;1827;50.534;8.316;2023-01-30T18:56:46;4.60;1.00
3626;DHT22;1827;50.534;8.316;2023-01-30T18:59:13;4.60;1.00
3626;DHT22;1827;50.534;8.316;2023-01-30T19:01:40;4.70;1.00
3626;DHT22;1827;50.534;8.316;2023-01-30T19:04:12;4.80;1.00
3626;DHT22;1827;50.534;8.316;2023-01-30T19:06:40;4.80;1.00
3626;DHT22;1827;50.534;8.316;2023-01-30T19:09:12;4.90;1.00
3626;DHT22;1827;50.534;8.316;2023-01-30T19:11:38;4.90;1.00
3626;DHT22;1827;50.534;8.316;2023-01-30T19:14:24;4.90;1.00
3626;DHT22;1827;50.534;8.316;2023-01-30T19:16:49;4.90;1.00
3626;DHT22;1827;50.534;8.316;2023-01-30T19:19:16;4.90;1.00
3626;DHT22;1827;50.534;8.316;2023-01-30T19:21:43;4.90;1.00
3626;DHT22;1827;50.534;8.316;2023-01-30T19:24:13;5.00;1.00
3626;DHT22;1827;50.534;8.316;2023-01-30T19:26:40;4.90;1.00
3626;DHT22;1827;50.534;8.316;2023-01-30T19:29:07;4.90;1.00
3626;DHT22;1827;50.534;8.316;2023-01-30T19:31:34;4.90;1.00
3626;DHT22;1827;50.534;8.316;2023-01-30T19:34:01;4.90;1.00
3626;DHT22;1827;50.534;8.316;2023-01-30T19:36:29;4.80;1.00
3626;DHT22;1827;50.534;8.316;2023-01-30T19:38:57;4.80;1.00
3626;DHT22;1827;50.534;8.316;2023-01-30T19:41:28;4.80;1.00
3626;DHT22;1827;50.534;8.316;2023-01-30T19:43:57;4.80;1.00
3626;DHT22;1827;50.534;8.316;2023-01-30T19:46:23;4.80;1.00
3626;DHT22;1827;50.534;8.316;2023-01-30T19:48:51;4.80;1.00
3626;DHT22;1827;50.534;8.316;2023-01-30T19:51:24;4.80;1.00